AAL447 GCXO-LPMA
Flight info
| Callsign | AAL447 |
|---|---|
| Flight time | 1h 0m |
| Altitude | 32000 |
| Route | BIMBO DCT EKNOT |
| Aircraft | MD11/H-SDE1E2E3FGHIJ2J3J4J5M1RWXY/LB1D1 |
Departure
| Time | 2026-05-05 05:22 |
|---|---|
| Airport | Tenerife Norte-Ciudad de La Laguna Airport (GCXO) |
Arrival
| Time | 2026-05-05 06:23 |
|---|---|
| Airport | Cristiano Ronaldo International Airport (LPMA) |
| Time | Latitude | Longitude | Altitude | Speed | Heading |
|---|---|---|---|---|---|
| 2026-05-05 04:44 | 28.48626 | -16.34553 | 2050 ft | 0 kts | 20° |
| 2026-05-05 05:13 | 28.48622 | -16.34554 | 2051 ft | 2 kts | 20° |
| 2026-05-05 05:13 | 28.48608 | -16.34560 | 2053 ft | 2 kts | 20° |
| 2026-05-05 05:13 | 28.48594 | -16.34566 | 2054 ft | 2 kts | 20° |
| 2026-05-05 05:14 | 28.48580 | -16.34572 | 2055 ft | 2 kts | 20° |
| 2026-05-05 05:14 | 28.48566 | -16.34578 | 2056 ft | 1 kts | 20° |
| 2026-05-05 05:14 | 28.48557 | -16.34581 | 2056 ft | 2 kts | 14° |
| 2026-05-05 05:14 | 28.48543 | -16.34582 | 2057 ft | 2 kts | 347° |
| 2026-05-05 05:15 | 28.48529 | -16.34576 | 2057 ft | 2 kts | 324° |
| 2026-05-05 05:15 | 28.48519 | -16.34564 | 2057 ft | 2 kts | 301° |
| 2026-05-05 05:15 | 28.48515 | -16.34555 | 2056 ft | 1 kts | 290° |
| 2026-05-05 05:15 | 28.48514 | -16.34553 | 2056 ft | 0 kts | 290° |
| 2026-05-05 05:19 | 28.48524 | -16.34584 | 2058 ft | 10 kts | 290° |
| 2026-05-05 05:19 | 28.48562 | -16.34703 | 2064 ft | 20 kts | 290° |
| 2026-05-05 05:19 | 28.48622 | -16.34880 | 2071 ft | 27 kts | 291° |
| 2026-05-05 05:19 | 28.48698 | -16.35108 | 2073 ft | 34 kts | 291° |
| 2026-05-05 05:20 | 28.48793 | -16.35391 | 2068 ft | 42 kts | 291° |
| 2026-05-05 05:20 | 28.48858 | -16.35721 | 2064 ft | 24 kts | 242° |
| 2026-05-05 05:20 | 28.48788 | -16.35765 | 2067 ft | 13 kts | 144° |
| 2026-05-05 05:20 | 28.48763 | -16.35662 | 2066 ft | 10 kts | 104° |
| 2026-05-05 05:21 | 28.48761 | -16.35656 | 2066 ft | 0 kts | 106° |
| 2026-05-05 05:21 | 28.48761 | -16.35655 | 2066 ft | 0 kts | 106° |
| 2026-05-05 05:21 | 28.48748 | -16.35608 | 2067 ft | 12 kts | 108° |
| 2026-05-05 05:21 | 28.48657 | -16.35329 | 2074 ft | 70 kts | 111° |
| 2026-05-05 05:22 | 28.48403 | -16.34568 | 2063 ft | 134 kts | 110° |
| 2026-05-05 05:22 | 28.48002 | -16.33371 | 2050 ft | 182 kts | 113° |
| 2026-05-05 05:22 | 28.47514 | -16.32061 | 2566 ft | 182 kts | 115° |
| 2026-05-05 05:22 | 28.46954 | -16.30768 | 3122 ft | 182 kts | 118° |
| 2026-05-05 05:23 | 28.46365 | -16.29523 | 3781 ft | 182 kts | 121° |
| 2026-05-05 05:23 | 28.45707 | -16.28293 | 4345 ft | 185 kts | 123° |
| 2026-05-05 05:23 | 28.45009 | -16.27028 | 4844 ft | 190 kts | 123° |
| 2026-05-05 05:23 | 28.44299 | -16.25750 | 5312 ft | 198 kts | 123° |
| 2026-05-05 05:24 | 28.43513 | -16.24348 | 5523 ft | 222 kts | 124° |
| 2026-05-05 05:24 | 28.42636 | -16.22815 | 6010 ft | 236 kts | 125° |
| 2026-05-05 05:24 | 28.41745 | -16.21300 | 6856 ft | 238 kts | 127° |
| 2026-05-05 05:24 | 28.40805 | -16.19730 | 6898 ft | 238 kts | 123° |
| 2026-05-05 05:25 | 28.40153 | -16.17278 | 7143 ft | 259 kts | 98° |
| 2026-05-05 05:25 | 28.39999 | -16.15889 | 7246 ft | 270 kts | 100° |
| 2026-05-05 05:25 | 28.39632 | -16.13781 | 7070 ft | 277 kts | 107° |
| 2026-05-05 05:25 | 28.39030 | -16.11648 | 7030 ft | 287 kts | 111° |
| 2026-05-05 05:26 | 28.38699 | -16.09425 | 7030 ft | 291 kts | 86° |
| 2026-05-05 05:26 | 28.39199 | -16.07184 | 7009 ft | 294 kts | 62° |
| 2026-05-05 05:26 | 28.40437 | -16.05386 | 6996 ft | 289 kts | 37° |
| 2026-05-05 05:26 | 28.42190 | -16.04327 | 6987 ft | 286 kts | 12° |
| 2026-05-05 05:27 | 28.44121 | -16.04282 | 7857 ft | 277 kts | 342° |
| 2026-05-05 05:27 | 28.45907 | -16.05078 | 8712 ft | 281 kts | 327° |
| 2026-05-05 05:27 | 28.49191 | -16.07594 | 10415 ft | 297 kts | 318° |
| 2026-05-05 05:28 | 28.50916 | -16.09087 | 10762 ft | 326 kts | 318° |
| 2026-05-05 05:28 | 28.52899 | -16.10617 | 11057 ft | 359 kts | 327° |
| 2026-05-05 05:28 | 28.56154 | -16.12087 | 11784 ft | 393 kts | 340° |
| 2026-05-05 05:28 | 28.57974 | -16.12573 | 12305 ft | 404 kts | 344° |
| 2026-05-05 05:29 | 28.60742 | -16.13121 | 13300 ft | 412 kts | 346° |
| 2026-05-05 05:29 | 28.63615 | -16.13619 | 14235 ft | 420 kts | 346° |
| 2026-05-05 05:29 | 28.66510 | -16.14138 | 15181 ft | 425 kts | 345° |
| 2026-05-05 05:29 | 28.69424 | -16.14694 | 16152 ft | 430 kts | 345° |
| 2026-05-05 05:30 | 28.72369 | -16.15277 | 17042 ft | 436 kts | 344° |
| 2026-05-05 05:30 | 28.75427 | -16.15684 | 17895 ft | 449 kts | 355° |
| 2026-05-05 05:30 | 28.78550 | -16.15264 | 18781 ft | 461 kts | 7° |
| 2026-05-05 05:30 | 28.81720 | -16.14322 | 19532 ft | 472 kts | 12° |
| 2026-05-05 05:31 | 28.84841 | -16.13216 | 20328 ft | 478 kts | 12° |
| 2026-05-05 05:31 | 28.88058 | -16.12099 | 21100 ft | 483 kts | 11° |
| 2026-05-05 05:31 | 28.91285 | -16.11042 | 21878 ft | 488 kts | 11° |
| 2026-05-05 05:31 | 28.95694 | -16.09667 | 22901 ft | 495 kts | 9° |
| 2026-05-05 05:32 | 28.97897 | -16.08990 | 23392 ft | 499 kts | 9° |
| 2026-05-05 05:32 | 29.01279 | -16.07940 | 24123 ft | 505 kts | 10° |
| 2026-05-05 05:32 | 29.04675 | -16.06869 | 24837 ft | 511 kts | 9° |
| 2026-05-05 05:32 | 29.08126 | -16.05770 | 25510 ft | 517 kts | 9° |
| 2026-05-05 05:33 | 29.11604 | -16.04660 | 26141 ft | 524 kts | 9° |
| 2026-05-05 05:33 | 29.15148 | -16.03526 | 26761 ft | 530 kts | 9° |
| 2026-05-05 05:33 | 29.18730 | -16.02383 | 27396 ft | 536 kts | 9° |
| 2026-05-05 05:33 | 29.22331 | -16.01235 | 28071 ft | 541 kts | 9° |
| 2026-05-05 05:34 | 29.25935 | -16.00080 | 28811 ft | 544 kts | 9° |
| 2026-05-05 05:34 | 29.29604 | -15.98906 | 29640 ft | 544 kts | 8° |
| 2026-05-05 05:34 | 29.33248 | -15.97737 | 30475 ft | 543 kts | 8° |
| 2026-05-05 05:34 | 29.36866 | -15.96575 | 31345 ft | 541 kts | 8° |
| 2026-05-05 05:35 | 29.40499 | -15.95417 | 31685 ft | 538 kts | 8° |
| 2026-05-05 05:35 | 29.44126 | -15.94260 | 31865 ft | 535 kts | 7° |
| 2026-05-05 05:35 | 29.51254 | -15.91993 | 31921 ft | 534 kts | 7° |
| 2026-05-05 05:36 | 29.58461 | -15.89697 | 31940 ft | 535 kts | 8° |
| 2026-05-05 05:36 | 29.65668 | -15.87386 | 31954 ft | 535 kts | 8° |
| 2026-05-05 05:37 | 29.72850 | -15.85061 | 31957 ft | 535 kts | 8° |
| 2026-05-05 05:37 | 29.80034 | -15.82737 | 31974 ft | 536 kts | 8° |
| 2026-05-05 05:38 | 29.87234 | -15.80423 | 31979 ft | 535 kts | 8° |
| 2026-05-05 05:38 | 29.94422 | -15.78128 | 31970 ft | 534 kts | 6° |
| 2026-05-05 05:39 | 30.01615 | -15.76996 | 31995 ft | 516 kts | 351° |
| 2026-05-05 05:39 | 30.05191 | -15.77206 | 32000 ft | 505 kts | 343° |
| 2026-05-05 05:39 | 30.08596 | -15.77867 | 31993 ft | 496 kts | 338° |
| 2026-05-05 05:40 | 30.15328 | -15.79621 | 31986 ft | 494 kts | 339° |
| 2026-05-05 05:40 | 30.22105 | -15.81081 | 31978 ft | 499 kts | 341° |
| 2026-05-05 05:41 | 30.28991 | -15.82357 | 31990 ft | 501 kts | 342° |
| 2026-05-05 05:41 | 30.35887 | -15.83609 | 31997 ft | 500 kts | 342° |
| 2026-05-05 05:42 | 30.42772 | -15.84865 | 32000 ft | 499 kts | 342° |
| 2026-05-05 05:42 | 30.49602 | -15.86113 | 31994 ft | 498 kts | 342° |
| 2026-05-05 05:43 | 30.56455 | -15.87374 | 31994 ft | 497 kts | 343° |
| 2026-05-05 05:43 | 30.64466 | -15.88840 | 31998 ft | 498 kts | 343° |
| 2026-05-05 05:44 | 30.70170 | -15.89887 | 31999 ft | 497 kts | 343° |
| 2026-05-05 05:44 | 30.76998 | -15.91135 | 31998 ft | 496 kts | 343° |
| 2026-05-05 05:45 | 30.83834 | -15.92389 | 31995 ft | 496 kts | 343° |
| 2026-05-05 05:45 | 30.90673 | -15.93648 | 32006 ft | 496 kts | 344° |
| 2026-05-05 05:46 | 30.97473 | -15.94908 | 31994 ft | 495 kts | 344° |
| 2026-05-05 05:46 | 31.04313 | -15.96181 | 32004 ft | 495 kts | 344° |
| 2026-05-05 05:47 | 31.11086 | -15.97442 | 32003 ft | 495 kts | 345° |
| 2026-05-05 05:47 | 31.17895 | -15.98704 | 31999 ft | 493 kts | 345° |
| 2026-05-05 05:48 | 31.24712 | -15.99970 | 31994 ft | 494 kts | 345° |
| 2026-05-05 05:48 | 31.31522 | -16.01236 | 31998 ft | 494 kts | 345° |
| 2026-05-05 05:49 | 31.38320 | -16.02513 | 31995 ft | 492 kts | 344° |
| 2026-05-05 05:49 | 31.44973 | -16.04211 | 31998 ft | 488 kts | 340° |
| 2026-05-05 05:50 | 31.51493 | -16.06387 | 31996 ft | 487 kts | 338° |
| 2026-05-05 05:50 | 31.54757 | -16.07541 | 31379 ft | 492 kts | 338° |
| 2026-05-05 05:50 | 31.58054 | -16.08708 | 30575 ft | 493 kts | 338° |
| 2026-05-05 05:51 | 31.61340 | -16.09868 | 29757 ft | 494 kts | 339° |
| 2026-05-05 05:51 | 31.65729 | -16.11407 | 28591 ft | 496 kts | 339° |
| 2026-05-05 05:51 | 31.67929 | -16.12177 | 27998 ft | 497 kts | 340° |
| 2026-05-05 05:51 | 31.71265 | -16.13339 | 27073 ft | 495 kts | 340° |
| 2026-05-05 05:52 | 31.74553 | -16.14478 | 26233 ft | 491 kts | 340° |
| 2026-05-05 05:52 | 31.77840 | -16.15619 | 25451 ft | 490 kts | 340° |
| 2026-05-05 05:52 | 31.81113 | -16.16761 | 24607 ft | 496 kts | 340° |
| 2026-05-05 05:52 | 31.84374 | -16.17900 | 24119 ft | 487 kts | 340° |
| 2026-05-05 05:53 | 31.87661 | -16.19047 | 23272 ft | 488 kts | 341° |
| 2026-05-05 05:53 | 31.90853 | -16.20163 | 22637 ft | 483 kts | 341° |
| 2026-05-05 05:53 | 31.94091 | -16.21291 | 21901 ft | 479 kts | 341° |
| 2026-05-05 05:53 | 31.97279 | -16.22400 | 21202 ft | 475 kts | 341° |
| 2026-05-05 05:54 | 32.00424 | -16.23496 | 20515 ft | 471 kts | 341° |
| 2026-05-05 05:54 | 32.03544 | -16.24582 | 19770 ft | 462 kts | 341° |
| 2026-05-05 05:54 | 32.06588 | -16.25640 | 19090 ft | 450 kts | 341° |
| 2026-05-05 05:54 | 32.10574 | -16.27027 | 18238 ft | 442 kts | 341° |
| 2026-05-05 05:55 | 32.12540 | -16.27712 | 17816 ft | 440 kts | 341° |
| 2026-05-05 05:55 | 32.15445 | -16.28725 | 17200 ft | 437 kts | 341° |
| 2026-05-05 05:55 | 32.18389 | -16.29750 | 16646 ft | 437 kts | 341° |
| 2026-05-05 05:55 | 32.21326 | -16.30714 | 16114 ft | 437 kts | 342° |
| 2026-05-05 05:56 | 32.24242 | -16.31660 | 15567 ft | 431 kts | 342° |
| 2026-05-05 05:56 | 32.27090 | -16.32596 | 15126 ft | 426 kts | 341° |
| 2026-05-05 05:56 | 32.30861 | -16.33861 | 14617 ft | 422 kts | 342° |
| 2026-05-05 05:56 | 32.32772 | -16.34508 | 14302 ft | 421 kts | 341° |
| 2026-05-05 05:57 | 32.35548 | -16.35461 | 13824 ft | 419 kts | 341° |
| 2026-05-05 05:57 | 32.38356 | -16.36414 | 13313 ft | 416 kts | 341° |
| 2026-05-05 05:57 | 32.41128 | -16.37362 | 12821 ft | 412 kts | 342° |
| 2026-05-05 05:57 | 32.44778 | -16.38564 | 12177 ft | 408 kts | 343° |
| 2026-05-05 05:58 | 32.46615 | -16.39127 | 11859 ft | 407 kts | 343° |
| 2026-05-05 05:58 | 32.49323 | -16.39983 | 11348 ft | 399 kts | 343° |
| 2026-05-05 05:58 | 32.51974 | -16.40854 | 10872 ft | 391 kts | 342° |
| 2026-05-05 05:58 | 32.54554 | -16.41718 | 10420 ft | 383 kts | 342° |
| 2026-05-05 05:59 | 32.57949 | -16.42871 | 9866 ft | 372 kts | 342° |
| 2026-05-05 05:59 | 32.59595 | -16.43428 | 9605 ft | 367 kts | 343° |
| 2026-05-05 05:59 | 32.62018 | -16.44269 | 9144 ft | 357 kts | 343° |
| 2026-05-05 05:59 | 32.64361 | -16.45084 | 8803 ft | 341 kts | 343° |
| 2026-05-05 06:00 | 32.67313 | -16.46109 | 8384 ft | 322 kts | 344° |
| 2026-05-05 06:00 | 32.69424 | -16.46838 | 8116 ft | 309 kts | 344° |
| 2026-05-05 06:00 | 32.70772 | -16.47302 | 7958 ft | 300 kts | 344° |
| 2026-05-05 06:00 | 32.72740 | -16.47972 | 7735 ft | 287 kts | 344° |
| 2026-05-05 06:01 | 32.74629 | -16.48628 | 7555 ft | 271 kts | 345° |
| 2026-05-05 06:01 | 32.76373 | -16.49245 | 7388 ft | 256 kts | 344° |
| 2026-05-05 06:01 | 32.78068 | -16.49912 | 7095 ft | 251 kts | 338° |
| 2026-05-05 06:01 | 32.79541 | -16.50946 | 6870 ft | 244 kts | 322° |
| 2026-05-05 06:02 | 32.80767 | -16.52329 | 6665 ft | 242 kts | 313° |
| 2026-05-05 06:02 | 32.81859 | -16.53849 | 6431 ft | 241 kts | 311° |
| 2026-05-05 06:02 | 32.82901 | -16.55403 | 6208 ft | 239 kts | 309° |
| 2026-05-05 06:02 | 32.83856 | -16.56993 | 5965 ft | 234 kts | 299° |
| 2026-05-05 06:03 | 32.84366 | -16.58774 | 5790 ft | 226 kts | 277° |
| 2026-05-05 06:03 | 32.84172 | -16.60564 | 5660 ft | 215 kts | 245° |
| 2026-05-05 06:03 | 32.83286 | -16.61978 | 5522 ft | 215 kts | 223° |
| 2026-05-05 06:03 | 32.82107 | -16.63053 | 5255 ft | 214 kts | 209° |
| 2026-05-05 06:04 | 32.80760 | -16.63794 | 5062 ft | 211 kts | 197° |
| 2026-05-05 06:04 | 32.79356 | -16.64301 | 4861 ft | 210 kts | 195° |
| 2026-05-05 06:04 | 32.77958 | -16.64840 | 4650 ft | 210 kts | 196° |
| 2026-05-05 06:04 | 32.76581 | -16.65387 | 4477 ft | 209 kts | 196° |
| 2026-05-05 06:05 | 32.75196 | -16.65932 | 4274 ft | 208 kts | 195° |
| 2026-05-05 06:05 | 32.73818 | -16.66461 | 4091 ft | 203 kts | 195° |
| 2026-05-05 06:05 | 32.72509 | -16.66976 | 3904 ft | 192 kts | 194° |
| 2026-05-05 06:05 | 32.70875 | -16.67610 | 3752 ft | 179 kts | 194° |
| 2026-05-05 06:06 | 32.70083 | -16.67913 | 3706 ft | 176 kts | 193° |
| 2026-05-05 06:06 | 32.68913 | -16.68364 | 3595 ft | 176 kts | 193° |
| 2026-05-05 06:06 | 32.67749 | -16.68805 | 3459 ft | 176 kts | 195° |
| 2026-05-05 06:06 | 32.66581 | -16.69280 | 3298 ft | 175 kts | 196° |
| 2026-05-05 06:07 | 32.65038 | -16.69894 | 3077 ft | 173 kts | 193° |
| 2026-05-05 06:07 | 32.64274 | -16.70178 | 2984 ft | 173 kts | 193° |
| 2026-05-05 06:07 | 32.63152 | -16.70730 | 2773 ft | 175 kts | 205° |
| 2026-05-05 06:07 | 32.61869 | -16.71948 | 2584 ft | 179 kts | 225° |
| 2026-05-05 06:08 | 32.61381 | -16.72726 | 2472 ft | 179 kts | 236° |
| 2026-05-05 06:08 | 32.60872 | -16.74064 | 2376 ft | 179 kts | 251° |
| 2026-05-05 06:08 | 32.60660 | -16.75551 | 2202 ft | 181 kts | 267° |
| 2026-05-05 06:08 | 32.60870 | -16.77501 | 2016 ft | 181 kts | 287° |
| 2026-05-05 06:09 | 32.61187 | -16.78421 | 1987 ft | 179 kts | 300° |
| 2026-05-05 06:09 | 32.61960 | -16.79577 | 2036 ft | 179 kts | 322° |
| 2026-05-05 06:09 | 32.63395 | -16.80464 | 1979 ft | 170 kts | 351° |
| 2026-05-05 06:09 | 32.64176 | -16.80589 | 1903 ft | 166 kts | 3° |
| 2026-05-05 06:10 | 32.65701 | -16.80486 | 1492 ft | 163 kts | 9° |
| 2026-05-05 06:10 | 32.66446 | -16.80354 | 1218 ft | 165 kts | 14° |
| 2026-05-05 06:10 | 32.67892 | -16.79757 | 650 ft | 164 kts | 34° |
| 2026-05-05 06:10 | 32.68417 | -16.79134 | 374 ft | 162 kts | 62° |
| 2026-05-05 06:11 | 32.69163 | -16.78147 | 219 ft | 157 kts | 23° |
| 2026-05-05 06:11 | 32.70062 | -16.77399 | 769 ft | 158 kts | 58° |
| 2026-05-05 06:11 | 32.70622 | -16.76383 | 1680 ft | 144 kts | 59° |
| 2026-05-05 06:11 | 32.71154 | -16.75403 | 1793 ft | 147 kts | 59° |
| 2026-05-05 06:12 | 32.71744 | -16.74351 | 1358 ft | 154 kts | 58° |
| 2026-05-05 06:12 | 32.72304 | -16.73259 | 1676 ft | 153 kts | 65° |
| 2026-05-05 06:12 | 32.72702 | -16.72087 | 2086 ft | 157 kts | 77° |
| 2026-05-05 06:12 | 32.72868 | -16.70769 | 2437 ft | 170 kts | 87° |
| 2026-05-05 06:13 | 32.72763 | -16.68764 | 2892 ft | 192 kts | 99° |
| 2026-05-05 06:13 | 32.72433 | -16.67151 | 2907 ft | 213 kts | 107° |
| 2026-05-05 06:13 | 32.71814 | -16.65479 | 2932 ft | 227 kts | 117° |
| 2026-05-05 06:13 | 32.70925 | -16.63930 | 2922 ft | 230 kts | 128° |
| 2026-05-05 06:14 | 32.70175 | -16.62998 | 2926 ft | 232 kts | 135° |
| 2026-05-05 06:14 | 32.68420 | -16.61547 | 2949 ft | 234 kts | 149° |
| 2026-05-05 06:14 | 32.67405 | -16.61010 | 2947 ft | 235 kts | 153° |
| 2026-05-05 06:14 | 32.66196 | -16.59827 | 3019 ft | 228 kts | 122° |
| 2026-05-05 06:15 | 32.65713 | -16.57425 | 3034 ft | 232 kts | 81° |
| 2026-05-05 06:15 | 32.66368 | -16.55633 | 3005 ft | 242 kts | 50° |
| 2026-05-05 06:15 | 32.67230 | -16.54748 | 3043 ft | 253 kts | 32° |
| 2026-05-05 06:15 | 32.69528 | -16.54110 | 3030 ft | 264 kts | 355° |
| 2026-05-05 06:16 | 32.70717 | -16.54455 | 3023 ft | 267 kts | 337° |
| 2026-05-05 06:16 | 32.72249 | -16.55705 | 3012 ft | 271 kts | 317° |
| 2026-05-05 06:16 | 32.73934 | -16.57987 | 2961 ft | 275 kts | 309° |
| 2026-05-05 06:16 | 32.75158 | -16.59724 | 2953 ft | 274 kts | 315° |
| 2026-05-05 06:17 | 32.76069 | -16.60761 | 2961 ft | 274 kts | 321° |
| 2026-05-05 06:17 | 32.77853 | -16.62892 | 2998 ft | 273 kts | 298° |
| 2026-05-05 06:17 | 32.78405 | -16.65032 | 3024 ft | 275 kts | 271° |
| 2026-05-05 06:17 | 32.78300 | -16.66546 | 3028 ft | 273 kts | 252° |
| 2026-05-05 06:18 | 32.77017 | -16.69052 | 3027 ft | 267 kts | 216° |
| 2026-05-05 06:18 | 32.75982 | -16.69813 | 3020 ft | 263 kts | 197° |
| 2026-05-05 06:18 | 32.74224 | -16.70143 | 3019 ft | 256 kts | 169° |
| 2026-05-05 06:18 | 32.72538 | -16.69523 | 3021 ft | 252 kts | 150° |
| 2026-05-05 06:19 | 32.71007 | -16.68467 | 2956 ft | 253 kts | 148° |
| 2026-05-05 06:19 | 32.68711 | -16.67961 | 3023 ft | 259 kts | 187° |
| 2026-05-05 06:19 | 32.66971 | -16.68553 | 2936 ft | 266 kts | 198° |
| 2026-05-05 06:19 | 32.65100 | -16.69511 | 2969 ft | 314 kts | 201° |
| 2026-05-05 06:20 | 32.63740 | -16.70247 | 3192 ft | 325 kts | 205° |
| 2026-05-05 06:20 | 32.61940 | -16.71803 | 3091 ft | 319 kts | 226° |
| 2026-05-05 06:20 | 32.60811 | -16.74005 | 3069 ft | 308 kts | 250° |
| 2026-05-05 06:20 | 32.60590 | -16.77351 | 2507 ft | 308 kts | 284° |
| 2026-05-05 06:21 | 32.61086 | -16.78896 | 2338 ft | 294 kts | 300° |
| 2026-05-05 06:21 | 32.62876 | -16.80948 | 1683 ft | 257 kts | 336° |
| 2026-05-05 06:21 | 32.64513 | -16.81347 | 1128 ft | 235 kts | 4° |
| 2026-05-05 06:21 | 32.66025 | -16.80863 | 893 ft | 215 kts | 28° |
| 2026-05-05 06:22 | 32.67211 | -16.80118 | 856 ft | 180 kts | 31° |
| 2026-05-05 06:22 | 32.67918 | -16.79577 | 430 ft | 178 kts | 36° |
| 2026-05-05 06:22 | 32.69028 | -16.78318 | 155 ft | 159 kts | 41° |
| 2026-05-05 06:22 | 32.69509 | -16.77767 | 210 ft | 123 kts | 44° |
| 2026-05-05 06:23 | 32.69911 | -16.77300 | 212 ft | 26 kts | 43° |
| 2026-05-05 06:23 | 32.69914 | -16.77167 | 189 ft | 21 kts | 181° |
| 2026-05-05 06:23 | 32.69834 | -16.77192 | 182 ft | 8 kts | 210° |
| 2026-05-05 06:23 | 32.69794 | -16.77230 | 183 ft | 4 kts | 225° |
| 2026-05-05 06:24 | 32.69783 | -16.77243 | 184 ft | 0 kts | 225° |
| 2026-05-05 06:24 | 32.69775 | -16.77252 | 184 ft | 3 kts | 226° |
| 2026-05-05 06:24 | 32.69723 | -16.77316 | 187 ft | 12 kts | 227° |
| 2026-05-05 06:25 | 32.69679 | -16.77372 | 189 ft | 9 kts | 228° |
| 2026-05-05 06:25 | 32.69639 | -16.77424 | 191 ft | 2 kts | 227° |
| 2026-05-05 06:25 | 32.69589 | -16.77450 | 187 ft | 12 kts | 154° |
| 2026-05-05 06:25 | 32.69560 | -16.77416 | 177 ft | 8 kts | 129° |
| 2026-05-05 06:26 | 32.69544 | -16.77396 | 171 ft | 0 kts | 137° |